CHX83 EDLW-EDLW

Flight info

Callsign CHX83
Flight time 0h 1m
Altitude
Route
Aircraft H45

Departure

Time 2026-04-29 13:31
Airport Dortmund Airport (EDLW)

Arrival

Time 2026-04-29 13:33
Airport Dortmund Airport (EDLW)
Time Latitude Longitude Altitude Speed Heading
2026-04-29 13:20 51.51072 7.60310 473 ft 0 kts 360°
2026-04-29 13:23 51.51078 7.60320 582 ft 1 kts 215°
2026-04-29 13:23 51.50948 7.60474 787 ft 63 kts 135°
2026-04-29 13:23 51.50546 7.61155 764 ft 95 kts 126°
2026-04-29 13:23 51.50388 7.62011 623 ft 72 kts 59°
2026-04-29 13:24 51.50528 7.62337 408 ft 5 kts
2026-04-29 13:24 51.50532 7.62339 404 ft 0 kts
2026-04-29 13:26 51.50525 7.62336 451 ft 2 kts 25°
2026-04-29 13:26 51.50540 7.62372 552 ft 31 kts 40°
2026-04-29 13:26 51.50857 7.63016 721 ft 99 kts 50°
2026-04-29 13:26 51.51346 7.63970 872 ft 121 kts 49°
2026-04-29 13:27 51.51911 7.65060 927 ft 133 kts 48°
2026-04-29 13:27 51.52541 7.66050 757 ft 121 kts 40°
2026-04-29 13:27 51.53071 7.67024 688 ft 113 kts 46°
2026-04-29 13:27 51.53555 7.68005 482 ft 102 kts 48°
2026-04-29 13:28 51.53809 7.68444 429 ft 9 kts 265°
2026-04-29 13:28 51.53716 7.68313 393 ft 2 kts 216°
2026-04-29 13:28 51.53706 7.68305 342 ft 0 kts 209°
2026-04-29 13:30 51.53706 7.68304 343 ft 2 kts 208°
2026-04-29 13:30 51.53723 7.68305 405 ft 1 kts 73°
2026-04-29 13:30 51.53722 7.68309 407 ft 1 kts 246°
2026-04-29 13:31 51.53622 7.68077 674 ft 66 kts 231°
2026-04-29 13:31 51.53145 7.67541 849 ft 92 kts 212°
2026-04-29 13:31 51.52610 7.66904 1115 ft 100 kts 223°
2026-04-29 13:31 51.52176 7.65954 1336 ft 113 kts 241°
2026-04-29 13:32 51.51789 7.64719 1291 ft 133 kts 242°
2026-04-29 13:32 51.51379 7.63300 1187 ft 144 kts 242°
2026-04-29 13:32 51.50949 7.61914 906 ft 134 kts 237°
2026-04-29 13:32 51.50924 7.60992 777 ft 62 kts 282°
2026-04-29 13:33 51.51051 7.60479 585 ft 32 kts 275°
2026-04-29 13:33 51.51105 7.60322 473 ft 2 kts 339°